sensor_id;sensor_type;location;lat;lon;timestamp;temperature;humidity
53904;DHT22;39812;52.430;16.936;2022-07-29T00:00:14;14.90;88.00
53904;DHT22;39812;52.430;16.936;2022-07-29T00:02:39;14.80;88.30
53904;DHT22;39812;52.430;16.936;2022-07-29T00:05:05;14.80;89.00
53904;DHT22;39812;52.430;16.936;2022-07-29T00:07:31;14.70;89.50
53904;DHT22;39812;52.430;16.936;2022-07-29T00:09:56;14.60;90.10
53904;DHT22;39812;52.430;16.936;2022-07-29T00:12:23;14.70;90.50
53904;DHT22;39812;52.430;16.936;2022-07-29T00:14:49;14.60;90.70
53904;DHT22;39812;52.430;16.936;2022-07-29T00:17:15;14.60;90.90
53904;DHT22;39812;52.430;16.936;2022-07-29T00:19:40;14.60;91.20
53904;DHT22;39812;52.430;16.936;2022-07-29T00:22:06;14.50;91.60
53904;DHT22;39812;52.430;16.936;2022-07-29T00:24:31;14.50;92.00
53904;DHT22;39812;52.430;16.936;2022-07-29T00:26:57;14.50;92.30
53904;DHT22;39812;52.430;16.936;2022-07-29T00:29:22;14.30;92.90
53904;DHT22;39812;52.430;16.936;2022-07-29T00:31:48;14.30;93.40
53904;DHT22;39812;52.430;16.936;2022-07-29T00:34:13;14.20;94.20
53904;DHT22;39812;52.430;16.936;2022-07-29T00:36:58;14.10;94.90
53904;DHT22;39812;52.430;16.936;2022-07-29T00:39:23;14.10;95.50
53904;DHT22;39812;52.430;16.936;2022-07-29T00:41:49;14.10;96.30
53904;DHT22;39812;52.430;16.936;2022-07-29T00:44:15;13.90;97.20
53904;DHT22;39812;52.430;16.936;2022-07-29T00:46:40;13.90;98.00
53904;DHT22;39812;52.430;16.936;2022-07-29T00:49:06;14.00;98.90
53904;DHT22;39812;52.430;16.936;2022-07-29T00:51:34;13.80;99.80
53904;DHT22;39812;52.430;16.936;2022-07-29T00:54:00;13.90;99.90
53904;DHT22;39812;52.430;16.936;2022-07-29T00:56:25;13.80;99.90
53904;DHT22;39812;52.430;16.936;2022-07-29T00:58:51;13.80;99.90
53904;DHT22;39812;52.430;16.936;2022-07-29T01:01:17;13.80;99.90
53904;DHT22;39812;52.430;16.936;2022-07-29T01:03:43;13.70;99.90
53904;DHT22;39812;52.430;16.936;2022-07-29T01:06:09;13.70;99.90
53904;DHT22;39812;52.430;16.936;2022-07-29T01:08:35;13.80;99.90
53904;DHT22;39812;52.430;16.936;2022-07-29T01:11:01;13.70;99.90
53904;DHT22;39812;52.430;16.936;2022-07-29T01:13:27;13.70;99.90
53904;DHT22;39812;52.430;16.936;2022-07-29T01:15:59;13.70;99.90
53904;DHT22;39812;52.430;16.936;2022-07-29T01:18:30;13.80;99.90
53904;DHT22;39812;52.430;16.936;2022-07-29T01:21:21;13.70;99.90
53904;DHT22;39812;52.430;16.936;2022-07-29T01:29:46;13.70;99.90
53904;DHT22;39812;52.430;16.936;2022-07-29T01:32:17;13.70;99.90
53904;DHT22;39812;52.430;16.936;2022-07-29T01:34:58;13.60;99.90
53904;DHT22;39812;52.430;16.936;2022-07-29T01:37:36;13.60;99.90
53904;DHT22;39812;52.430;16.936;2022-07-29T01:40:04;13.70;99.90
53904;DHT22;39812;52.430;16.936;2022-07-29T01:42:38;13.60;99.90
53904;DHT22;39812;52.430;16.936;2022-07-29T01:45:15;13.70;99.90
53904;DHT22;39812;52.430;16.936;2022-07-29T01:47:46;13.70;99.90
53904;DHT22;39812;52.430;16.936;2022-07-29T01:50:17;13.70;99.90
53904;DHT22;39812;52.430;16.936;2022-07-29T01:53:04;13.60;99.90
53904;DHT22;39812;52.430;16.936;2022-07-29T01:55:35;13.50;99.90
53904;DHT22;39812;52.430;16.936;2022-07-29T01:58:04;13.40;99.90
53904;DHT22;39812;52.430;16.936;2022-07-29T02:00:32;13.50;99.90
53904;DHT22;39812;52.430;16.936;2022-07-29T02:03:00;13.50;99.90
53904;DHT22;39812;52.430;16.936;2022-07-29T02:05:28;13.50;99.90
53904;DHT22;39812;52.430;16.936;2022-07-29T02:07:55;13.40;99.90
53904;DHT22;39812;52.430;16.936;2022-07-29T02:10:26;13.40;99.90
53904;DHT22;39812;52.430;16.936;2022-07-29T02:12:54;13.50;99.90
53904;DHT22;39812;52.430;16.936;2022-07-29T02:15:22;13.40;99.90
53904;DHT22;39812;52.430;16.936;2022-07-29T02:17:57;13.40;99.90
53904;DHT22;39812;52.430;16.936;2022-07-29T02:20:25;13.30;99.90
53904;DHT22;39812;52.430;16.936;2022-07-29T02:22:52;13.30;99.90
53904;DHT22;39812;52.430;16.936;2022-07-29T02:25:18;13.30;99.90
53904;DHT22;39812;52.430;16.936;2022-07-29T02:27:47;13.30;99.90
53904;DHT22;39812;52.430;16.936;2022-07-29T02:30:13;13.30;99.90
53904;DHT22;39812;52.430;16.936;2022-07-29T02:32:40;13.30;99.90
53904;DHT22;39812;52.430;16.936;2022-07-29T02:35:08;13.30;99.90
53904;DHT22;39812;52.430;16.936;2022-07-29T02:37:36;13.30;99.90
53904;DHT22;39812;52.430;16.936;2022-07-29T02:40:03;13.30;99.90
53904;DHT22;39812;52.430;16.936;2022-07-29T02:42:30;13.30;99.90
53904;DHT22;39812;52.430;16.936;2022-07-29T02:44:56;13.20;99.90
53904;DHT22;39812;52.430;16.936;2022-07-29T02:47:27;13.20;99.90
53904;DHT22;39812;52.430;16.936;2022-07-29T02:49:59;13.20;99.90
53904;DHT22;39812;52.430;16.936;2022-07-29T02:52:45;13.10;99.90
53904;DHT22;39812;52.430;16.936;2022-07-29T02:57:47;13.10;99.90
53904;DHT22;39812;52.430;16.936;2022-07-29T03:00:15;13.10;99.90
53904;DHT22;39812;52.430;16.936;2022-07-29T03:02:44;13.10;99.90
53904;DHT22;39812;52.430;16.936;2022-07-29T03:05:15;13.10;99.90
53904;DHT22;39812;52.430;16.936;2022-07-29T03:07:46;13.20;99.90
53904;DHT22;39812;52.430;16.936;2022-07-29T03:10:12;13.10;99.90
53904;DHT22;39812;52.430;16.936;2022-07-29T03:12:38;13.10;99.90
53904;DHT22;39812;52.430;16.936;2022-07-29T03:15:05;13.20;99.90
53904;DHT22;39812;52.430;16.936;2022-07-29T03:17:31;13.20;99.90
53904;DHT22;39812;52.430;16.936;2022-07-29T03:19:58;13.20;99.90
53904;DHT22;39812;52.430;16.936;2022-07-29T03:22:24;13.20;99.90
53904;DHT22;39812;52.430;16.936;2022-07-29T03:24:50;13.30;99.90
53904;DHT22;39812;52.430;16.936;2022-07-29T03:27:15;13.20;99.90
53904;DHT22;39812;52.430;16.936;2022-07-29T03:29:41;13.30;99.90
53904;DHT22;39812;52.430;16.936;2022-07-29T03:32:06;13.30;99.90
53904;DHT22;39812;52.430;16.936;2022-07-29T03:34:32;13.40;99.90
53904;DHT22;39812;52.430;16.936;2022-07-29T03:36:57;13.40;99.90
53904;DHT22;39812;52.430;16.936;2022-07-29T03:39:26;13.40;99.90
53904;DHT22;39812;52.430;16.936;2022-07-29T03:41:55;13.40;99.90
53904;DHT22;39812;52.430;16.936;2022-07-29T03:44:21;13.50;99.90
53904;DHT22;39812;52.430;16.936;2022-07-29T03:46:49;13.60;99.90
53904;DHT22;39812;52.430;16.936;2022-07-29T03:49:17;13.60;99.90
53904;DHT22;39812;52.430;16.936;2022-07-29T03:51:44;13.70;99.90
53904;DHT22;39812;52.430;16.936;2022-07-29T03:54:09;13.70;99.90
53904;DHT22;39812;52.430;16.936;2022-07-29T03:56:39;13.70;99.90
53904;DHT22;39812;52.430;16.936;2022-07-29T03:59:07;13.70;99.90
53904;DHT22;39812;52.430;16.936;2022-07-29T04:01:33;13.80;99.90
53904;DHT22;39812;52.430;16.936;2022-07-29T04:04:01;13.90;99.90
53904;DHT22;39812;52.430;16.936;2022-07-29T04:06:26;14.00;99.90
53904;DHT22;39812;52.430;16.936;2022-07-29T04:08:52;14.10;99.90
53904;DHT22;39812;52.430;16.936;2022-07-29T04:11:17;14.20;99.90
53904;DHT22;39812;52.430;16.936;2022-07-29T04:13:43;14.30;99.90
53904;DHT22;39812;52.430;16.936;2022-07-29T04:16:08;14.30;99.90
53904;DHT22;39812;52.430;16.936;2022-07-29T04:18:34;14.30;99.90
53904;DHT22;39812;52.430;16.936;2022-07-29T04:20:59;14.40;99.90
53904;DHT22;39812;52.430;16.936;2022-07-29T04:23:29;14.60;99.90
53904;DHT22;39812;52.430;16.936;2022-07-29T04:25:57;14.60;99.90
53904;DHT22;39812;52.430;16.936;2022-07-29T04:28:23;14.70;99.90
53904;DHT22;39812;52.430;16.936;2022-07-29T04:30:48;14.80;99.90
53904;DHT22;39812;52.430;16.936;2022-07-29T04:33:14;14.90;99.90
53904;DHT22;39812;52.430;16.936;2022-07-29T04:35:40;15.10;99.90
53904;DHT22;39812;52.430;16.936;2022-07-29T04:38:06;15.10;99.90
53904;DHT22;39812;52.430;16.936;2022-07-29T04:40:32;15.20;99.90
53904;DHT22;39812;52.430;16.936;2022-07-29T04:42:58;15.20;99.90
53904;DHT22;39812;52.430;16.936;2022-07-29T04:45:24;15.30;99.90
53904;DHT22;39812;52.430;16.936;2022-07-29T04:47:50;15.40;99.90
53904;DHT22;39812;52.430;16.936;2022-07-29T04:50:15;15.40;99.90
53904;DHT22;39812;52.430;16.936;2022-07-29T04:52:40;15.50;99.90
53904;DHT22;39812;52.430;16.936;2022-07-29T04:55:06;15.60;99.90
53904;DHT22;39812;52.430;16.936;2022-07-29T04:57:32;15.60;99.90
53904;DHT22;39812;52.430;16.936;2022-07-29T04:59:58;15.80;99.90
53904;DHT22;39812;52.430;16.936;2022-07-29T05:02:23;15.90;99.90
53904;DHT22;39812;52.430;16.936;2022-07-29T05:04:49;15.90;99.90
53904;DHT22;39812;52.430;16.936;2022-07-29T05:07:14;15.90;99.90
53904;DHT22;39812;52.430;16.936;2022-07-29T05:09:40;16.00;99.90
53904;DHT22;39812;52.430;16.936;2022-07-29T05:12:06;16.20;99.90
53904;DHT22;39812;52.430;16.936;2022-07-29T05:14:32;16.30;99.90
53904;DHT22;39812;52.430;16.936;2022-07-29T05:16:57;16.30;99.90
53904;DHT22;39812;52.430;16.936;2022-07-29T05:19:23;16.30;99.90
53904;DHT22;39812;52.430;16.936;2022-07-29T05:21:48;16.40;99.90
53904;DHT22;39812;52.430;16.936;2022-07-29T05:24:14;16.50;99.90
53904;DHT22;39812;52.430;16.936;2022-07-29T05:26:40;16.50;99.90
53904;DHT22;39812;52.430;16.936;2022-07-29T05:29:05;16.70;99.90
53904;DHT22;39812;52.430;16.936;2022-07-29T05:31:31;16.80;99.90
53904;DHT22;39812;52.430;16.936;2022-07-29T05:33:56;16.90;99.90
53904;DHT22;39812;52.430;16.936;2022-07-29T05:36:22;17.10;99.90
53904;DHT22;39812;52.430;16.936;2022-07-29T05:38:47;17.20;99.90
53904;DHT22;39812;52.430;16.936;2022-07-29T05:41:13;17.30;99.90
53904;DHT22;39812;52.430;16.936;2022-07-29T05:43:38;17.40;99.90
53904;DHT22;39812;52.430;16.936;2022-07-29T05:46:04;17.60;99.90
53904;DHT22;39812;52.430;16.936;2022-07-29T05:48:29;17.60;99.90
53904;DHT22;39812;52.430;16.936;2022-07-29T05:50:55;17.60;99.90
53904;DHT22;39812;52.430;16.936;2022-07-29T05:53:22;17.70;99.90
53904;DHT22;39812;52.430;16.936;2022-07-29T05:55:48;17.80;99.90
53904;DHT22;39812;52.430;16.936;2022-07-29T05:58:14;17.90;99.90
53904;DHT22;39812;52.430;16.936;2022-07-29T06:00:39;17.90;99.90
53904;DHT22;39812;52.430;16.936;2022-07-29T06:03:05;18.00;99.90
53904;DHT22;39812;52.430;16.936;2022-07-29T06:05:30;18.20;99.90
53904;DHT22;39812;52.430;16.936;2022-07-29T06:07:56;18.20;99.90
53904;DHT22;39812;52.430;16.936;2022-07-29T06:10:21;18.40;99.90
53904;DHT22;39812;52.430;16.936;2022-07-29T06:12:47;18.50;99.90
53904;DHT22;39812;52.430;16.936;2022-07-29T06:15:12;18.70;99.90
53904;DHT22;39812;52.430;16.936;2022-07-29T06:17:38;18.90;99.90
53904;DHT22;39812;52.430;16.936;2022-07-29T06:20:04;19.10;99.90
53904;DHT22;39812;52.430;16.936;2022-07-29T06:22:30;19.30;99.90
53904;DHT22;39812;52.430;16.936;2022-07-29T06:24:56;19.20;99.90
53904;DHT22;39812;52.430;16.936;2022-07-29T06:27:21;19.30;99.90
53904;DHT22;39812;52.430;16.936;2022-07-29T06:29:47;19.30;99.90
53904;DHT22;39812;52.430;16.936;2022-07-29T06:32:13;19.50;99.90
53904;DHT22;39812;52.430;16.936;2022-07-29T06:34:45;19.70;99.70
53904;DHT22;39812;52.430;16.936;2022-07-29T06:37:11;19.90;99.50
53904;DHT22;39812;52.430;16.936;2022-07-29T06:39:37;20.20;98.90
53904;DHT22;39812;52.430;16.936;2022-07-29T06:42:04;20.30;98.50
53904;DHT22;39812;52.430;16.936;2022-07-29T06:44:29;20.50;98.30
53904;DHT22;39812;52.430;16.936;2022-07-29T06:46:56;20.60;97.80
53904;DHT22;39812;52.430;16.936;2022-07-29T06:49:21;20.80;97.40
53904;DHT22;39812;52.430;16.936;2022-07-29T06:51:48;20.90;96.80
53904;DHT22;39812;52.430;16.936;2022-07-29T06:54:14;21.20;96.30
53904;DHT22;39812;52.430;16.936;2022-07-29T06:56:40;21.60;95.50
53904;DHT22;39812;52.430;16.936;2022-07-29T06:59:29;21.90;94.60
53904;DHT22;39812;52.430;16.936;2022-07-29T07:02:09;22.30;93.60
53904;DHT22;39812;52.430;16.936;2022-07-29T07:04:35;22.60;92.70
53904;DHT22;39812;52.430;16.936;2022-07-29T07:07:00;22.80;92.30
53904;DHT22;39812;52.430;16.936;2022-07-29T07:09:26;23.30;91.50
53904;DHT22;39812;52.430;16.936;2022-07-29T07:11:51;23.60;90.30
53904;DHT22;39812;52.430;16.936;2022-07-29T07:14:17;23.70;89.60
53904;DHT22;39812;52.430;16.936;2022-07-29T07:16:42;23.90;88.40
53904;DHT22;39812;52.430;16.936;2022-07-29T07:19:09;24.30;87.30
53904;DHT22;39812;52.430;16.936;2022-07-29T07:21:34;24.40;85.70
53904;DHT22;39812;52.430;16.936;2022-07-29T07:24:00;24.50;84.30
53904;DHT22;39812;52.430;16.936;2022-07-29T07:26:26;24.40;82.80
53904;DHT22;39812;52.430;16.936;2022-07-29T07:28:52;24.40;82.00
53904;DHT22;39812;52.430;16.936;2022-07-29T07:31:18;24.60;81.70
53904;DHT22;39812;52.430;16.936;2022-07-29T07:33:43;24.60;81.40
53904;DHT22;39812;52.430;16.936;2022-07-29T07:36:09;24.90;80.30
53904;DHT22;39812;52.430;16.936;2022-07-29T07:38:35;24.80;79.60
53904;DHT22;39812;52.430;16.936;2022-07-29T07:41:01;24.70;79.90
53904;DHT22;39812;52.430;16.936;2022-07-29T07:43:26;24.50;80.00
53904;DHT22;39812;52.430;16.936;2022-07-29T07:45:52;24.70;79.30
53904;DHT22;39812;52.430;16.936;2022-07-29T07:48:18;24.80;78.20
53904;DHT22;39812;52.430;16.936;2022-07-29T07:50:43;24.80;77.60
53904;DHT22;39812;52.430;16.936;2022-07-29T07:53:09;24.80;77.70
53904;DHT22;39812;52.430;16.936;2022-07-29T07:55:40;24.90;77.30
53904;DHT22;39812;52.430;16.936;2022-07-29T07:58:06;25.00;77.00
53904;DHT22;39812;52.430;16.936;2022-07-29T08:00:32;24.80;77.10
53904;DHT22;39812;52.430;16.936;2022-07-29T08:02:58;25.10;76.90
53904;DHT22;39812;52.430;16.936;2022-07-29T08:05:23;25.20;76.70
53904;DHT22;39812;52.430;16.936;2022-07-29T08:07:49;25.30;75.90
53904;DHT22;39812;52.430;16.936;2022-07-29T08:10:16;25.20;75.80
53904;DHT22;39812;52.430;16.936;2022-07-29T08:13:04;24.80;76.00
53904;DHT22;39812;52.430;16.936;2022-07-29T08:15:30;24.70;75.80
53904;DHT22;39812;52.430;16.936;2022-07-29T08:17:55;24.60;76.60
53904;DHT22;39812;52.430;16.936;2022-07-29T08:20:21;24.60;75.50
53904;DHT22;39812;52.430;16.936;2022-07-29T08:22:46;24.80;75.30
53904;DHT22;39812;52.430;16.936;2022-07-29T08:25:12;25.10;74.60
53904;DHT22;39812;52.430;16.936;2022-07-29T08:27:37;25.20;74.20
53904;DHT22;39812;52.430;16.936;2022-07-29T08:30:03;25.30;73.60
53904;DHT22;39812;52.430;16.936;2022-07-29T08:32:29;25.50;72.90
53904;DHT22;39812;52.430;16.936;2022-07-29T08:34:54;25.60;71.90
53904;DHT22;39812;52.430;16.936;2022-07-29T08:37:20;25.60;71.90
53904;DHT22;39812;52.430;16.936;2022-07-29T08:39:45;25.70;71.70
53904;DHT22;39812;52.430;16.936;2022-07-29T08:42:11;25.90;70.90
53904;DHT22;39812;52.430;16.936;2022-07-29T08:44:37;26.10;70.50
53904;DHT22;39812;52.430;16.936;2022-07-29T08:47:03;26.10;70.20
53904;DHT22;39812;52.430;16.936;2022-07-29T08:49:30;26.10;70.40
53904;DHT22;39812;52.430;16.936;2022-07-29T08:51:57;26.20;70.30
53904;DHT22;39812;52.430;16.936;2022-07-29T08:54:23;26.20;70.10
53904;DHT22;39812;52.430;16.936;2022-07-29T08:56:51;26.10;70.00
53904;DHT22;39812;52.430;16.936;2022-07-29T08:59:19;26.20;69.60
53904;DHT22;39812;52.430;16.936;2022-07-29T09:01:46;26.40;69.40
53904;DHT22;39812;52.430;16.936;2022-07-29T09:04:13;26.60;68.90
53904;DHT22;39812;52.430;16.936;2022-07-29T09:06:44;26.40;68.60
53904;DHT22;39812;52.430;16.936;2022-07-29T09:09:11;26.50;68.20
53904;DHT22;39812;52.430;16.936;2022-07-29T09:11:39;26.70;67.90
53904;DHT22;39812;52.430;16.936;2022-07-29T09:14:05;26.40;67.20
53904;DHT22;39812;52.430;16.936;2022-07-29T09:19:29;26.70;67.10
53904;DHT22;39812;52.430;16.936;2022-07-29T09:21:57;26.80;66.80
53904;DHT22;39812;52.430;16.936;2022-07-29T09:24:22;27.40;65.70
53904;DHT22;39812;52.430;16.936;2022-07-29T09:26:48;27.60;64.40
53904;DHT22;39812;52.430;16.936;2022-07-29T09:29:19;27.50;64.00
53904;DHT22;39812;52.430;16.936;2022-07-29T09:31:47;27.20;64.20
53904;DHT22;39812;52.430;16.936;2022-07-29T09:34:15;26.90;64.70
53904;DHT22;39812;52.430;16.936;2022-07-29T09:36:43;27.10;64.90
53904;DHT22;39812;52.430;16.936;2022-07-29T09:39:09;27.40;64.60
53904;DHT22;39812;52.430;16.936;2022-07-29T09:41:48;27.90;63.30
53904;DHT22;39812;52.430;16.936;2022-07-29T09:44:14;28.00;63.30
53904;DHT22;39812;52.430;16.936;2022-07-29T09:46:52;27.90;62.50
53904;DHT22;39812;52.430;16.936;2022-07-29T09:49:17;27.40;62.90
53904;DHT22;39812;52.430;16.936;2022-07-29T09:51:43;27.70;62.90
53904;DHT22;39812;52.430;16.936;2022-07-29T09:54:25;27.30;62.90
53904;DHT22;39812;52.430;16.936;2022-07-29T09:56:52;27.10;62.90
53904;DHT22;39812;52.430;16.936;2022-07-29T09:59:18;26.80;63.50
53904;DHT22;39812;52.430;16.936;2022-07-29T10:01:45;26.90;63.30
53904;DHT22;39812;52.430;16.936;2022-07-29T10:04:11;27.50;62.50
53904;DHT22;39812;52.430;16.936;2022-07-29T10:06:55;27.90;61.70
53904;DHT22;39812;52.430;16.936;2022-07-29T10:09:21;28.20;61.30
53904;DHT22;39812;52.430;16.936;2022-07-29T10:12:12;27.90;60.80
53904;DHT22;39812;52.430;16.936;2022-07-29T10:14:40;27.50;61.60
53904;DHT22;39812;52.430;16.936;2022-07-29T10:17:07;27.00;62.50
53904;DHT22;39812;52.430;16.936;2022-07-29T10:19:35;27.10;61.70
53904;DHT22;39812;52.430;16.936;2022-07-29T10:22:03;27.10;61.20
53904;DHT22;39812;52.430;16.936;2022-07-29T10:24:30;27.20;61.10
53904;DHT22;39812;52.430;16.936;2022-07-29T10:26:57;27.40;61.30
53904;DHT22;39812;52.430;16.936;2022-07-29T10:29:24;27.00;61.30
53904;DHT22;39812;52.430;16.936;2022-07-29T10:32:31;27.00;61.40
53904;DHT22;39812;52.430;16.936;2022-07-29T10:38:41;26.70;61.40
53904;DHT22;39812;52.430;16.936;2022-07-29T10:44:03;26.80;61.00
53904;DHT22;39812;52.430;16.936;2022-07-29T10:46:35;27.10;60.60
53904;DHT22;39812;52.430;16.936;2022-07-29T10:49:14;27.50;60.50
53904;DHT22;39812;52.430;16.936;2022-07-29T10:52:00;27.80;59.40
53904;DHT22;39812;52.430;16.936;2022-07-29T10:59:37;29.00;57.50
53904;DHT22;39812;52.430;16.936;2022-07-29T11:05:08;29.50;56.90
53904;DHT22;39812;52.430;16.936;2022-07-29T11:07:35;30.10;55.80
53904;DHT22;39812;52.430;16.936;2022-07-29T11:15:12;30.20;54.80
53904;DHT22;39812;52.430;16.936;2022-07-29T11:31:42;30.50;52.70
53904;DHT22;39812;52.430;16.936;2022-07-29T11:34:28;29.90;52.90
53904;DHT22;39812;52.430;16.936;2022-07-29T11:39:41;31.00;52.70
53904;DHT22;39812;52.430;16.936;2022-07-29T11:45:07;33.90;49.20
53904;DHT22;39812;52.430;16.936;2022-07-29T11:47:47;34.90;47.60
53904;DHT22;39812;52.430;16.936;2022-07-29T11:50:34;36.10;46.00
53904;DHT22;39812;52.430;16.936;2022-07-29T11:53:02;37.50;44.00
53904;DHT22;39812;52.430;16.936;2022-07-29T11:55:28;38.80;42.10
53904;DHT22;39812;52.430;16.936;2022-07-29T11:57:56;37.70;41.60
53904;DHT22;39812;52.430;16.936;2022-07-29T12:00:37;38.70;41.40
53904;DHT22;39812;52.430;16.936;2022-07-29T12:03:08;39.40;40.50
53904;DHT22;39812;52.430;16.936;2022-07-29T12:05:44;39.90;39.70
53904;DHT22;39812;52.430;16.936;2022-07-29T12:08:22;40.00;38.00
53904;DHT22;39812;52.430;16.936;2022-07-29T12:10:49;39.70;38.20
53904;DHT22;39812;52.430;16.936;2022-07-29T12:13:17;41.80;37.40
53904;DHT22;39812;52.430;16.936;2022-07-29T12:15:52;42.00;35.80
53904;DHT22;39812;52.430;16.936;2022-07-29T12:18:19;40.30;36.70
53904;DHT22;39812;52.430;16.936;2022-07-29T12:20:46;40.00;36.80
53904;DHT22;39812;52.430;16.936;2022-07-29T12:23:12;41.90;36.10
53904;DHT22;39812;52.430;16.936;2022-07-29T12:25:39;43.00;35.00
53904;DHT22;39812;52.430;16.936;2022-07-29T12:28:06;44.00;34.10
53904;DHT22;39812;52.430;16.936;2022-07-29T12:30:43;44.00;33.40
53904;DHT22;39812;52.430;16.936;2022-07-29T12:33:23;45.00;32.50
53904;DHT22;39812;52.430;16.936;2022-07-29T12:35:54;44.20;32.40
53904;DHT22;39812;52.430;16.936;2022-07-29T12:38:21;44.60;32.50
53904;DHT22;39812;52.430;16.936;2022-07-29T12:40:48;44.10;32.40
53904;DHT22;39812;52.430;16.936;2022-07-29T12:43:15;45.00;33.00
53904;DHT22;39812;52.430;16.936;2022-07-29T12:45:44;46.30;31.10
53904;DHT22;39812;52.430;16.936;2022-07-29T12:48:11;47.00;32.00
53904;DHT22;39812;52.430;16.936;2022-07-29T12:50:55;47.90;31.20
53904;DHT22;39812;52.430;16.936;2022-07-29T12:53:21;47.80;30.90
53904;DHT22;39812;52.430;16.936;2022-07-29T12:55:49;46.70;30.40
53904;DHT22;39812;52.430;16.936;2022-07-29T13:01:03;43.30;31.40
53904;DHT22;39812;52.430;16.936;2022-07-29T13:03:40;42.80;33.80
53904;DHT22;39812;52.430;16.936;2022-07-29T13:06:06;40.30;33.00
53904;DHT22;39812;52.430;16.936;2022-07-29T13:08:31;38.90;34.70
53904;DHT22;39812;52.430;16.936;2022-07-29T13:10:57;37.90;35.60
53904;DHT22;39812;52.430;16.936;2022-07-29T13:13:22;37.30;36.50
53904;DHT22;39812;52.430;16.936;2022-07-29T13:16:05;37.10;36.50
53904;DHT22;39812;52.430;16.936;2022-07-29T13:18:34;40.10;35.50
53904;DHT22;39812;52.430;16.936;2022-07-29T13:21:11;43.10;33.90
53904;DHT22;39812;52.430;16.936;2022-07-29T13:23:37;45.50;32.20
53904;DHT22;39812;52.430;16.936;2022-07-29T13:26:10;47.50;31.20
53904;DHT22;39812;52.430;16.936;2022-07-29T13:28:41;48.50;30.40
53904;DHT22;39812;52.430;16.936;2022-07-29T13:31:07;49.00;30.00
53904;DHT22;39812;52.430;16.936;2022-07-29T13:33:32;50.60;29.40
53904;DHT22;39812;52.430;16.936;2022-07-29T13:35:58;50.40;29.10
53904;DHT22;39812;52.430;16.936;2022-07-29T13:38:23;50.60;29.10
53904;DHT22;39812;52.430;16.936;2022-07-29T13:40:49;48.50;28.80
53904;DHT22;39812;52.430;16.936;2022-07-29T13:43:14;46.60;29.40
53904;DHT22;39812;52.430;16.936;2022-07-29T13:45:40;44.30;29.80
53904;DHT22;39812;52.430;16.936;2022-07-29T13:48:06;42.30;31.70
53904;DHT22;39812;52.430;16.936;2022-07-29T13:50:32;44.80;31.40
53904;DHT22;39812;52.430;16.936;2022-07-29T13:52:58;46.90;30.50
53904;DHT22;39812;52.430;16.936;2022-07-29T13:55:23;49.40;29.80
53904;DHT22;39812;52.430;16.936;2022-07-29T13:57:49;49.10;29.50
53904;DHT22;39812;52.430;16.936;2022-07-29T14:00:15;50.30;29.10
53904;DHT22;39812;52.430;16.936;2022-07-29T14:02:41;50.70;28.90
53904;DHT22;39812;52.430;16.936;2022-07-29T14:05:07;50.30;28.80
53904;DHT22;39812;52.430;16.936;2022-07-29T14:07:32;45.70;29.40
53904;DHT22;39812;52.430;16.936;2022-07-29T14:09:58;41.90;30.60
53904;DHT22;39812;52.430;16.936;2022-07-29T14:12:23;39.70;31.90
53904;DHT22;39812;52.430;16.936;2022-07-29T14:14:49;37.50;33.60
53904;DHT22;39812;52.430;16.936;2022-07-29T14:17:15;36.40;34.80
53904;DHT22;39812;52.430;16.936;2022-07-29T14:19:41;37.50;35.10
53904;DHT22;39812;52.430;16.936;2022-07-29T14:22:08;40.10;34.10
53904;DHT22;39812;52.430;16.936;2022-07-29T14:24:37;42.00;32.90
53904;DHT22;39812;52.430;16.936;2022-07-29T14:27:03;45.20;31.80
53904;DHT22;39812;52.430;16.936;2022-07-29T14:29:29;46.60;30.30
53904;DHT22;39812;52.430;16.936;2022-07-29T14:31:57;47.90;29.90
53904;DHT22;39812;52.430;16.936;2022-07-29T14:34:23;47.60;29.20
53904;DHT22;39812;52.430;16.936;2022-07-29T14:36:49;45.50;29.10
53904;DHT22;39812;52.430;16.936;2022-07-29T14:39:14;44.10;29.90
53904;DHT22;39812;52.430;16.936;2022-07-29T14:41:41;44.00;30.60
53904;DHT22;39812;52.430;16.936;2022-07-29T14:44:12;42.10;30.70
53904;DHT22;39812;52.430;16.936;2022-07-29T14:46:53;42.00;31.70
53904;DHT22;39812;52.430;16.936;2022-07-29T14:49:25;44.60;31.10
53904;DHT22;39812;52.430;16.936;2022-07-29T14:51:50;45.90;30.00
53904;DHT22;39812;52.430;16.936;2022-07-29T14:54:16;47.10;29.80
53904;DHT22;39812;52.430;16.936;2022-07-29T14:56:41;46.10;29.40
53904;DHT22;39812;52.430;16.936;2022-07-29T14:59:07;46.30;29.50
53904;DHT22;39812;52.430;16.936;2022-07-29T15:01:32;44.70;29.60
53904;DHT22;39812;52.430;16.936;2022-07-29T15:03:58;45.10;30.00
53904;DHT22;39812;52.430;16.936;2022-07-29T15:06:24;44.80;29.90
53904;DHT22;39812;52.430;16.936;2022-07-29T15:08:49;47.70;29.70
53904;DHT22;39812;52.430;16.936;2022-07-29T15:11:14;48.20;28.70
53904;DHT22;39812;52.430;16.936;2022-07-29T15:13:40;45.70;28.70
53904;DHT22;39812;52.430;16.936;2022-07-29T15:16:05;43.50;30.00
53904;DHT22;39812;52.430;16.936;2022-07-29T15:18:31;44.60;30.20
53904;DHT22;39812;52.430;16.936;2022-07-29T15:20:57;43.40;30.00
53904;DHT22;39812;52.430;16.936;2022-07-29T15:23:22;40.90;31.00
53904;DHT22;39812;52.430;16.936;2022-07-29T15:25:48;40.60;31.90
53904;DHT22;39812;52.430;16.936;2022-07-29T15:28:13;41.90;31.70
53904;DHT22;39812;52.430;16.936;2022-07-29T15:30:39;41.90;31.80
53904;DHT22;39812;52.430;16.936;2022-07-29T15:33:08;42.90;31.00
53904;DHT22;39812;52.430;16.936;2022-07-29T15:35:35;43.40;30.60
53904;DHT22;39812;52.430;16.936;2022-07-29T15:38:00;43.40;30.90
53904;DHT22;39812;52.430;16.936;2022-07-29T15:40:26;44.40;30.60
53904;DHT22;39812;52.430;16.936;2022-07-29T15:42:52;44.00;29.90
53904;DHT22;39812;52.430;16.936;2022-07-29T15:45:17;42.30;30.30
53904;DHT22;39812;52.430;16.936;2022-07-29T15:47:43;40.60;31.40
53904;DHT22;39812;52.430;16.936;2022-07-29T15:50:08;41.30;31.80
53904;DHT22;39812;52.430;16.936;2022-07-29T15:52:38;41.80;31.90
53904;DHT22;39812;52.430;16.936;2022-07-29T15:55:04;42.70;31.20
53904;DHT22;39812;52.430;16.936;2022-07-29T15:57:30;41.70;30.90
53904;DHT22;39812;52.430;16.936;2022-07-29T15:59:55;40.90;31.70
53904;DHT22;39812;52.430;16.936;2022-07-29T16:02:21;41.40;31.70
53904;DHT22;39812;52.430;16.936;2022-07-29T16:04:47;40.00;32.00
53904;DHT22;39812;52.430;16.936;2022-07-29T16:07:12;40.00;33.70
53904;DHT22;39812;52.430;16.936;2022-07-29T16:09:38;41.20;32.50
53904;DHT22;39812;52.430;16.936;2022-07-29T16:12:03;41.30;31.30